»·PEaware :: SWA1747 KATL-KDCA

SWA1747 :: KATL-KDCA

FLIGHT INFORMATION

Flight Status: Arrived
Operator:
Southwest Airlines
More flights by this operator :: More flights under this callsign
Pilot: Anonymous 13363 (13363)
Aircraft: BOEING 737-800
(B738)
More flights by this aircraft type
Origin: KATL Hartsfield-Jackson Atlanta
United States
Destination: KDCA Ronald Reagan Washington Natl
United States
More flights between these airports :: More routes between these airports
Route: JACCC2 KELLN Q56 KIWII WAVES CAPSS2
File this flight plan on PilotEdge
Remarks:
Altitude:
(Current/Filed)
35,000ft
Speed:
(Current/Filed)
454kts
Departed: 13-Feb-18 01:09 AM
Arrived: 13-Feb-18 02:21 AM
Distance/Time
Traveled:
474nm/1:11
Distance/Time
To Go:
Arrived

Flight Plot

Page will automatically refresh every two minutes.

Flight plan parsing failed; only flown route is shown


Map Options




Map Legend


Flown Route
Filed Route
Departure Airport
Arrival Airport
Navaid (VOR, NDB)
Fix

Horizontal Profiles

Position Reports

Time Latitude Longitude Heading Altitude Ground
Speed
13-Feb-18 00:57 33.640039 -84.432026 276 1031ft 0kts
13-Feb-18 00:58 33.640039 -84.432026 276 1031ft 0kts
13-Feb-18 00:59 33.640039 -84.432026 276 1031ft 0kts
13-Feb-18 01:00 33.640039 -84.432026 276 1031ft 0kts
13-Feb-18 01:01 33.640039 -84.432026 276 1031ft 0kts
13-Feb-18 01:02 33.640039 -84.432026 276 1031ft 0kts
13-Feb-18 01:03 33.640039 -84.432026 276 1031ft 0kts
13-Feb-18 01:04 33.640141 -84.431535 230 1031ft 2kts
13-Feb-18 01:05 33.640571 -84.431297 181 1031ft 0kts
13-Feb-18 01:06 33.640600 -84.431280 95 1031ft 0kts
13-Feb-18 01:07 33.640612 -84.431316 175 1031ft 0kts
13-Feb-18 01:08 33.640262 -84.431308 178 1031ft 2kts
13-Feb-18 01:09 33.639831 -84.431302 179 1031ft 0kts
13-Feb-18 01:10 33.638192 -84.431301 180 1031ft 8kts
13-Feb-18 01:11 33.636634 -84.433022 269 1031ft 10kts
13-Feb-18 01:12 33.636613 -84.437235 271 1031ft 14kts
13-Feb-18 01:13 33.636631 -84.442792 270 1031ft 16kts
13-Feb-18 01:14 33.635749 -84.447827 185 1031ft 12kts
13-Feb-18 01:15 33.634713 -84.447518 94 1031ft 9kts
13-Feb-18 01:16 33.634404 -84.409338 89 1534ft 174kts
13-Feb-18 01:17 33.634135 -84.345260 89 3341ft 224kts
13-Feb-18 01:18 33.633601 -84.263622 89 5513ft 268kts
13-Feb-18 01:19 33.633956 -84.172448 89 8503ft 282kts
13-Feb-18 01:20 33.641010 -84.074275 68 10582ft 320kts
13-Feb-18 01:21 33.672031 -83.966269 71 12502ft 362kts
13-Feb-18 01:22 33.705163 -83.848451 71 15066ft 385kts
13-Feb-18 01:23 33.739866 -83.724384 70 17671ft 403kts
13-Feb-18 01:24 33.786435 -83.600549 54 20005ft 417kts
13-Feb-18 01:25 33.850636 -83.481832 54 22146ft 433kts
13-Feb-18 01:26 33.916764 -83.358095 54 24012ft 451kts
13-Feb-18 01:27 33.994554 -83.211947 55 26026ft 464kts
13-Feb-18 01:28 34.050115 -83.107115 55 27278ft 475kts
13-Feb-18 01:29 34.116302 -82.981816 56 28644ft 486kts
13-Feb-18 01:30 34.188744 -82.843350 56 30007ft 497kts
13-Feb-18 01:31 34.261654 -82.703256 56 31683ft 495kts
13-Feb-18 01:32 34.334453 -82.562857 56 33191ft 494kts
13-Feb-18 01:33 34.406904 -82.422574 56 34516ft 494kts
13-Feb-18 01:34 34.474093 -82.285876 60 35451ft 498kts
13-Feb-18 01:35 34.545113 -82.137887 50 35495ft 514kts
13-Feb-18 01:36 34.629589 -81.998945 51 35587ft 516kts
13-Feb-18 01:37 34.715963 -81.854669 51 35601ft 541kts
13-Feb-18 01:38 34.804736 -81.706427 51 35593ft 546kts
13-Feb-18 01:39 34.894128 -81.557459 51 35609ft 546kts
13-Feb-18 01:40 34.983448 -81.408908 50 35599ft 546kts
13-Feb-18 01:41 35.070338 -81.264801 51 35589ft 546kts
13-Feb-18 01:42 35.159119 -81.117773 51 35585ft 546kts
13-Feb-18 01:43 35.247777 -80.968810 52 35587ft 547kts
13-Feb-18 01:44 35.335764 -80.817515 52 35590ft 547kts
13-Feb-18 01:45 35.423185 -80.667350 51 35634ft 547kts
13-Feb-18 01:46 35.511268 -80.516358 51 35622ft 546kts
13-Feb-18 01:47 35.598822 -80.366586 51 35632ft 546kts
13-Feb-18 01:48 35.683111 -80.222845 51 35640ft 547kts
13-Feb-18 01:49 35.772558 -80.070497 52 35625ft 561kts
13-Feb-18 01:50 35.861813 -79.914639 52 35619ft 561kts
13-Feb-18 01:51 35.951391 -79.759491 51 35623ft 562kts
13-Feb-18 01:52 36.042543 -79.603462 51 35626ft 562kts
13-Feb-18 01:53 36.129050 -79.455396 51 35615ft 563kts
13-Feb-18 01:54 36.205159 -79.324672 52 35657ft 563kts
13-Feb-18 01:55 36.293554 -79.171395 52 35665ft 564kts
13-Feb-18 01:56 36.384578 -79.013591 51 35668ft 564kts
13-Feb-18 01:57 36.475786 -78.855730 52 35671ft 565kts
13-Feb-18 01:58 36.566002 -78.696753 52 35675ft 565kts
13-Feb-18 01:59 36.672789 -78.559128 38 35676ft 559kts
13-Feb-18 02:00 36.785092 -78.425443 39 35682ft 560kts
13-Feb-18 02:01 36.884470 -78.306052 39 35664ft 561kts
13-Feb-18 02:02 36.996768 -78.170528 38 35670ft 571kts
13-Feb-18 02:03 37.101734 -78.043184 38 34399ft 566kts
13-Feb-18 02:04 37.172974 -77.956507 38 31808ft 562kts
13-Feb-18 02:05 37.278188 -77.827833 37 30699ft 493kts
13-Feb-18 02:06 37.375464 -77.708700 38 28293ft 482kts
13-Feb-18 02:07 37.468386 -77.594360 38 25855ft 463kts
13-Feb-18 02:08 37.557730 -77.484030 39 23415ft 444kts
13-Feb-18 02:09 37.661449 -77.425717 6 20984ft 400kts
13-Feb-18 02:10 37.766369 -77.392550 5 18856ft 378kts
13-Feb-18 02:11 37.864561 -77.362106 5 17148ft 355kts
13-Feb-18 02:12 37.955556 -77.334094 6 15564ft 343kts
13-Feb-18 02:13 38.045752 -77.306324 7 14026ft 331kts
13-Feb-18 02:14 38.105373 -77.287781 7 12990ft 324kts
13-Feb-18 02:15 38.160559 -77.270432 8 12033ft 317kts
13-Feb-18 02:16 38.239677 -77.245440 9 10656ft 300kts
13-Feb-18 02:17 38.317503 -77.220674 9 9303ft 279kts
13-Feb-18 02:18 38.379721 -77.166656 38 8098ft 269kts
13-Feb-18 02:19 38.433111 -77.106209 41 7009ft 266kts
13-Feb-18 02:20 38.486352 -77.045956 40 5921ft 252kts
13-Feb-18 02:21 38.544539 -77.011938 357 4927ft 235kts
13-Feb-18 02:22 38.607876 -77.015673 356 3938ft 228kts
13-Feb-18 02:23 38.665400 -77.019579 357 3179ft 211kts
13-Feb-18 02:24 38.716048 -77.024088 356 2483ft 177kts
13-Feb-18 02:25 38.752751 -77.027805 356 1823ft 141kts
13-Feb-18 02:26 38.789674 -77.031522 356 1083ft 134kts
13-Feb-18 02:27 38.833810 -77.036003 353 223ft 141kts
13-Feb-18 02:28 38.856827 -77.039236 311 21ft 10kts
13-Feb-18 02:29 38.856362 -77.040431 177 21ft 11kts
13-Feb-18 02:30 38.851266 -77.039757 175 21ft 27kts
13-Feb-18 02:31 38.846661 -77.040557 243 21ft 1kts
13-Feb-18 02:32 38.846308 -77.041866 305 21ft 3kts
13-Feb-18 02:33 38.846436 -77.041994 333 21ft 0kts
13-Feb-18 02:34 38.846436 -77.041993 333 21ft 0kts
13-Feb-18 02:35 38.846436 -77.041993 333 21ft 0kts
13-Feb-18 02:36 38.846436 -77.041993 333 21ft 0kts
13-Feb-18 02:37 38.846436 -77.041993 333 21ft 0kts
13-Feb-18 02:38 38.846436 -77.041993 333 21ft 0kts
13-Feb-18 02:39 38.846436 -77.041993 333 21ft 0kts
13-Feb-18 02:40 38.846436 -77.041993 333 21ft 0kts

Navigation Log

Ident Type
Flight plan parsing failed, navigation log unavailable